Time;durP1;ratioP1;P1;durP2;ratioP2;P2;SDS_P1;SDS_P2;PMS_P1;PMS_P2;Temp;Humidity;BMP_temperature;BMP_pressure;BME280_temperature;BME280_humidity;BME280_pressure;Samples;Min_cycle;Max_cycle;Signal;HPM_P1;HPM_P2
2022/04/28 00:01:48;;;;;;;12.15;6.35;;;;;;;;;;5016627;28;20041;-61
2022/04/28 00:04:13;;;;;;;14.60;6.35;;;;;;;;;;5027086;28;20040;-61
2022/04/28 00:06:39;;;;;;;16.15;6.45;;;;;;;;;;5025553;28;20112;-61
2022/04/28 00:09:05;;;;;;;16.60;6.80;;;;;;;;;;5022907;28;20055;-61
2022/04/28 00:11:31;;;;;;;11.18;6.60;;;;;;;;;;5050946;28;20487;-61
2022/04/28 00:13:58;;;;;;;11.38;6.38;;;;;;;;;;5046276;28;20025;-61
2022/04/28 00:16:24;;;;;;;14.50;6.97;;;;;;;;;;5050678;28;20083;-61
2022/04/28 00:18:49;;;;;;;14.98;6.43;;;;;;;;;;5045416;28;20029;-61
2022/04/28 00:21:15;;;;;;;10.73;6.75;;;;;;;;;;5029151;28;20030;-61
2022/04/28 00:23:40;;;;;;;13.10;6.85;;;;;;;;;;5032240;28;20478;-61
2022/04/28 00:26:06;;;;;;;14.27;6.78;;;;;;;;;;5052019;28;20025;-61
2022/04/28 00:28:31;;;;;;;13.57;6.72;;;;;;;;;;5051566;28;20673;-61
2022/04/28 00:30:56;;;;;;;12.50;6.70;;;;;;;;;;5053069;28;20036;-61
2022/04/28 00:33:22;;;;;;;10.82;6.97;;;;;;;;;;5033128;28;20091;-61
2022/04/28 00:35:47;;;;;;;22.83;7.00;;;;;;;;;;5034705;28;20138;-60
2022/04/28 00:38:14;;;;;;;13.90;7.22;;;;;;;;;;5022901;28;20057;-61
2022/04/28 00:40:39;;;;;;;14.15;7.25;;;;;;;;;;5022613;28;20037;-61
2022/04/28 00:43:20;;;;;;;12.00;7.15;;;;;;;;;;5033719;28;20040;-61
2022/04/28 00:45:49;;;;;;;11.97;6.80;;;;;;;;;;5040897;28;20028;-61
2022/04/28 00:51:02;;;;;;;15.25;7.07;;;;;;;;;;5050498;28;20429;-61
2022/04/28 00:53:29;;;;;;;12.43;6.80;;;;;;;;;;5026778;28;20025;-61
2022/04/28 00:55:57;;;;;;;15.50;6.90;;;;;;;;;;5014079;28;20074;-61
2022/04/28 00:58:23;;;;;;;15.25;7.20;;;;;;;;;;5014296;28;20030;-61
2022/04/28 01:00:48;;;;;;;14.48;7.30;;;;;;;;;;5030307;28;20037;-61
2022/04/28 01:03:14;;;;;;;16.00;7.63;;;;;;;;;;5049525;28;20095;-61
2022/04/28 01:05:39;;;;;;;12.68;7.25;;;;;;;;;;5040279;28;20034;-62
2022/04/28 01:08:06;;;;;;;14.15;7.72;;;;;;;;;;5026268;28;20112;-61
2022/04/28 01:10:32;;;;;;;16.85;6.97;;;;;;;;;;5032507;28;20030;-61
2022/04/28 01:12:57;;;;;;;14.23;7.50;;;;;;;;;;5042278;28;20485;-61
2022/04/28 01:15:23;;;;;;;15.23;7.30;;;;;;;;;;5053593;28;20047;-62
2022/04/28 01:17:48;;;;;;;15.75;7.18;;;;;;;;;;5040855;28;20029;-62
2022/04/28 01:20:14;;;;;;;13.70;7.68;;;;;;;;;;5025672;28;20054;-63
2022/04/28 01:22:40;;;;;;;14.68;7.22;;;;;;;;;;5029749;28;20029;-62
2022/04/28 01:25:07;;;;;;;14.60;7.20;;;;;;;;;;5046219;28;20041;-62
2022/04/28 01:27:38;;;;;;;15.10;8.00;;;;;;;;;;5031996;28;20479;-62
2022/04/28 01:30:11;;;;;;;18.03;7.47;;;;;;;;;;5037212;28;20033;-61
2022/04/28 01:32:36;;;;;;;13.88;7.53;;;;;;;;;;5053062;28;20712;-62
2022/04/28 01:35:02;;;;;;;17.13;7.93;;;;;;;;;;5045588;28;20021;-62
2022/04/28 01:37:27;;;;;;;17.75;7.78;;;;;;;;;;5023775;28;20033;-62
2022/04/28 01:39:55;;;;;;;17.30;7.70;;;;;;;;;;5032272;28;20029;-61
2022/04/28 01:42:22;;;;;;;18.52;7.57;;;;;;;;;;5032998;28;20387;-62
2022/04/28 01:44:47;;;;;;;14.90;7.43;;;;;;;;;;5035380;28;20424;-62
2022/04/28 01:47:13;;;;;;;15.93;7.72;;;;;;;;;;5052423;28;20143;-62
2022/04/28 01:49:38;;;;;;;14.98;7.53;;;;;;;;;;5046247;28;20045;-62
2022/04/28 01:54:59;;;;;;;19.45;7.97;;;;;;;;;;5033378;28;20064;-62
2022/04/28 01:57:30;;;;;;;16.27;8.05;;;;;;;;;;5031822;28;20426;-62
2022/04/28 01:59:59;;;;;;;19.50;7.60;;;;;;;;;;5035861;28;20104;-61
2022/04/28 02:02:24;;;;;;;15.88;8.50;;;;;;;;;;5052622;28;20053;-62
2022/04/28 02:04:50;;;;;;;16.00;7.70;;;;;;;;;;5045663;28;20064;-62
2022/04/28 02:07:16;;;;;;;13.93;7.55;;;;;;;;;;5013009;28;20029;-62
2022/04/28 02:09:42;;;;;;;17.30;7.70;;;;;;;;;;5016467;28;20052;-62
2022/04/28 02:12:10;;;;;;;17.35;7.90;;;;;;;;;;5030430;28;20034;-63
2022/04/28 02:14:36;;;;;;;16.27;8.57;;;;;;;;;;5014257;28;20491;-62
2022/04/28 02:17:04;;;;;;;16.95;7.90;;;;;;;;;;5031620;28;20044;-63
2022/04/28 02:19:30;;;;;;;16.98;8.13;;;;;;;;;;5031495;28;20041;-62
2022/04/28 02:21:55;;;;;;;15.65;8.50;;;;;;;;;;5032042;28;20033;-62
2022/04/28 02:24:21;;;;;;;17.17;8.73;;;;;;;;;;5047076;28;20143;-62
2022/04/28 02:26:47;;;;;;;14.90;7.82;;;;;;;;;;5034143;28;20061;-62
2022/04/28 02:29:12;;;;;;;16.13;8.20;;;;;;;;;;5044801;28;20100;-62
2022/04/28 02:31:37;;;;;;;14.02;8.15;;;;;;;;;;5052416;28;20032;-62
2022/04/28 02:34:03;;;;;;;17.48;8.30;;;;;;;;;;5048748;28;20036;-62
2022/04/28 02:36:28;;;;;;;16.77;8.13;;;;;;;;;;5051021;28;20060;-62
2022/04/28 02:39:03;;;;;;;15.40;7.70;;;;;;;;;;5039093;28;20038;-62
2022/04/28 02:41:29;;;;;;;19.42;8.30;;;;;;;;;;5028794;28;20033;-62
2022/04/28 02:43:54;;;;;;;17.42;7.95;;;;;;;;;;5029712;28;20037;-62
2022/04/28 02:46:20;;;;;;;17.75;8.55;;;;;;;;;;5040139;28;20441;-62
2022/04/28 02:48:46;;;;;;;18.90;8.90;;;;;;;;;;5049955;28;20065;-63
2022/04/28 02:51:12;;;;;;;17.67;8.90;;;;;;;;;;5047154;28;20376;-63
2022/04/28 02:53:37;;;;;;;14.75;7.80;;;;;;;;;;5050603;28;20382;-62
2022/04/28 02:56:04;;;;;;;17.55;8.20;;;;;;;;;;5030947;28;20125;-62
2022/04/28 02:58:29;;;;;;;20.10;8.68;;;;;;;;;;5032059;28;20055;-62
2022/04/28 03:00:55;;;;;;;17.63;8.40;;;;;;;;;;5040459;28;20100;-62
2022/04/28 03:03:20;;;;;;;18.88;8.20;;;;;;;;;;5041345;28;20057;-62
2022/04/28 03:11:15;;;;;;;19.27;8.23;;;;;;;;;;5050934;28;20036;-62
2022/04/28 03:13:40;;;;;;;17.15;8.20;;;;;;;;;;5047553;28;20025;-62
2022/04/28 03:16:06;;;;;;;19.63;8.63;;;;;;;;;;5031216;28;20120;-62
2022/04/28 03:18:33;;;;;;;20.55;8.52;;;;;;;;;;5031183;28;20034;-62
2022/04/28 03:21:02;;;;;;;18.58;8.45;;;;;;;;;;5015790;28;20034;-62
2022/04/28 03:23:27;;;;;;;20.95;8.68;;;;;;;;;;5014469;28;20049;-62
2022/04/28 03:25:52;;;;;;;19.40;9.10;;;;;;;;;;5032646;28;20084;-62
2022/04/28 03:28:22;;;;;;;17.75;8.52;;;;;;;;;;5031204;28;20076;-62
2022/04/28 03:30:49;;;;;;;18.65;9.00;;;;;;;;;;5051211;28;20051;-62
2022/04/28 03:33:15;;;;;;;16.65;8.52;;;;;;;;;;5046978;28;20395;-62
2022/04/28 03:35:41;;;;;;;16.35;8.55;;;;;;;;;;5019120;28;20041;-62
2022/04/28 03:38:12;;;;;;;21.42;8.82;;;;;;;;;;5050477;28;20394;-62
2022/04/28 03:40:39;;;;;;;19.35;8.75;;;;;;;;;;5048712;28;20424;-62
2022/04/28 03:43:05;;;;;;;22.60;9.20;;;;;;;;;;5048580;28;20033;-62
2022/04/28 03:45:32;;;;;;;20.27;8.98;;;;;;;;;;5051345;28;20032;-62
2022/04/28 03:47:57;;;;;;;24.10;9.30;;;;;;;;;;5030159;28;20486;-62
2022/04/28 03:50:23;;;;;;;19.92;8.98;;;;;;;;;;5015808;28;20108;-62
2022/04/28 03:52:48;;;;;;;16.67;9.05;;;;;;;;;;5044484;28;20037;-62
2022/04/28 03:55:14;;;;;;;20.88;8.70;;;;;;;;;;5049571;28;20037;-62
2022/04/28 03:57:40;;;;;;;17.52;8.30;;;;;;;;;;5050596;28;20029;-62
2022/04/28 04:00:07;;;;;;;19.90;8.82;;;;;;;;;;5049815;28;20119;-62
2022/04/28 04:02:32;;;;;;;21.90;9.13;;;;;;;;;;5027714;28;20046;-62
2022/04/28 04:04:58;;;;;;;22.77;9.30;;;;;;;;;;5020269;28;20052;-61
2022/04/28 04:07:28;;;;;;;20.75;9.10;;;;;;;;;;5048453;28;20104;-62
2022/04/28 04:09:54;;;;;;;19.45;10.27;;;;;;;;;;5037682;28;20029;-62
2022/04/28 04:12:19;;;;;;;20.08;9.18;;;;;;;;;;5041095;28;20036;-62
2022/04/28 04:14:45;;;;;;;22.05;9.55;;;;;;;;;;5035403;28;20044;-62
2022/04/28 04:17:10;;;;;;;23.95;10.25;;;;;;;;;;5035835;28;20022;-62
2022/04/28 04:19:36;;;;;;;20.00;9.10;;;;;;;;;;5027627;28;20052;-62
2022/04/28 04:22:01;;;;;;;22.52;9.80;;;;;;;;;;5036008;28;20032;-62
2022/04/28 04:24:27;;;;;;;19.55;9.05;;;;;;;;;;5055455;28;20049;-62
2022/04/28 04:26:53;;;;;;;19.17;9.52;;;;;;;;;;5052489;28;20037;-62
2022/04/28 04:29:18;;;;;;;20.50;9.43;;;;;;;;;;5054221;28;20040;-62
2022/04/28 04:34:28;;;;;;;22.17;9.43;;;;;;;;;;5038908;28;20378;-62
2022/04/28 04:36:53;;;;;;;17.45;9.10;;;;;;;;;;5054867;28;20025;-63
2022/04/28 04:39:18;;;;;;;19.17;9.50;;;;;;;;;;5051789;28;20036;-61
2022/04/28 04:41:44;;;;;;;23.38;9.77;;;;;;;;;;5054379;28;20108;-62
2022/04/28 04:44:13;;;;;;;15.68;8.82;;;;;;;;;;5052680;28;20033;-61
2022/04/28 04:46:40;;;;;;;20.77;10.00;;;;;;;;;;5042759;28;20056;-61
2022/04/28 04:49:06;;;;;;;19.33;9.75;;;;;;;;;;5036827;28;20379;-61
2022/04/28 04:51:31;;;;;;;23.15;9.75;;;;;;;;;;5054511;28;20040;-61
2022/04/28 04:53:56;;;;;;;26.08;10.18;;;;;;;;;;5051695;28;20038;-61
2022/04/28 04:56:22;;;;;;;17.60;9.32;;;;;;;;;;5034706;28;20053;-66
2022/04/28 04:58:47;;;;;;;24.02;10.40;;;;;;;;;;5035104;28;20355;-62
2022/04/28 05:01:13;;;;;;;21.40;10.50;;;;;;;;;;5019907;28;20030;-61
2022/04/28 05:03:38;;;;;;;24.60;10.73;;;;;;;;;;5050455;28;20406;-62
2022/04/28 05:06:04;;;;;;;19.83;10.02;;;;;;;;;;5041195;28;20033;-61
2022/04/28 05:08:29;;;;;;;18.85;9.32;;;;;;;;;;5043430;28;20037;-63
2022/04/28 05:10:55;;;;;;;21.13;10.15;;;;;;;;;;5037605;28;20033;-61
2022/04/28 05:13:20;;;;;;;18.60;9.52;;;;;;;;;;5023581;28;20842;-64
2022/04/28 05:15:47;;;;;;;20.17;9.45;;;;;;;;;;5044652;28;20044;-62
2022/04/28 05:18:12;;;;;;;21.25;9.82;;;;;;;;;;5040456;28;20030;-66
2022/04/28 05:20:38;;;;;;;20.48;9.80;;;;;;;;;;5039282;28;20036;-68
2022/04/28 05:23:04;;;;;;;22.38;9.63;;;;;;;;;;5030852;28;20060;-66
2022/04/28 05:25:30;;;;;;;22.17;9.57;;;;;;;;;;5043288;28;20040;-69
2022/04/28 05:27:55;;;;;;;23.50;9.90;;;;;;;;;;5053559;28;20025;-68
2022/04/28 05:30:21;;;;;;;19.33;9.90;;;;;;;;;;5040947;28;20045;-67
2022/04/28 05:32:46;;;;;;;24.10;9.75;;;;;;;;;;5033378;28;20041;-67
2022/04/28 05:35:12;;;;;;;20.00;9.10;;;;;;;;;;5039491;28;20036;-65
2022/04/28 05:37:38;;;;;;;20.17;9.80;;;;;;;;;;5053539;28;20032;-67
2022/04/28 05:40:07;;;;;;;17.38;8.50;;;;;;;;;;5044135;28;20037;-64
2022/04/28 05:48:02;;;;;;;18.75;8.95;;;;;;;;;;5029559;28;20041;-64
2022/04/28 05:50:28;;;;;;;20.55;9.15;;;;;;;;;;5042538;28;20025;-66
2022/04/28 05:52:53;;;;;;;20.05;9.32;;;;;;;;;;5052009;28;20077;-68
2022/04/28 05:55:18;;;;;;;19.95;9.27;;;;;;;;;;5049013;28;20530;-65
2022/04/28 05:57:44;;;;;;;24.05;9.20;;;;;;;;;;5036418;28;20551;-67
2022/04/28 06:00:10;;;;;;;20.67;9.13;;;;;;;;;;5052051;28;20036;-66
2022/04/28 06:02:37;;;;;;;18.45;9.20;;;;;;;;;;5044839;28;20068;-65
2022/04/28 06:05:03;;;;;;;17.83;9.43;;;;;;;;;;5012995;28;20407;-63
2022/04/28 06:07:29;;;;;;;22.75;9.35;;;;;;;;;;5020970;28;20040;-66
2022/04/28 06:09:54;;;;;;;20.23;9.95;;;;;;;;;;5032998;28;20029;-67
2022/04/28 06:12:20;;;;;;;17.55;8.73;;;;;;;;;;5033220;28;20132;-64
2022/04/28 06:14:48;;;;;;;20.35;8.90;;;;;;;;;;5049406;28;20444;-65
2022/04/28 06:17:13;;;;;;;18.73;8.38;;;;;;;;;;5050049;28;20083;-71
2022/04/28 06:19:39;;;;;;;23.38;8.65;;;;;;;;;;5017489;28;21266;-66
2022/04/28 06:22:04;;;;;;;17.63;8.20;;;;;;;;;;5051292;28;20031;-65
2022/04/28 06:24:30;;;;;;;19.75;8.23;;;;;;;;;;5031454;28;20455;-65
2022/04/28 06:26:55;;;;;;;20.13;8.15;;;;;;;;;;5052800;28;20059;-67
2022/04/28 06:29:20;;;;;;;20.15;8.85;;;;;;;;;;5048626;28;20067;-66
2022/04/28 06:31:46;;;;;;;14.05;7.65;;;;;;;;;;5034543;28;20033;-66
2022/04/28 06:34:11;;;;;;;15.20;8.13;;;;;;;;;;5034497;28;20061;-63
2022/04/28 06:36:36;;;;;;;17.55;8.05;;;;;;;;;;5032567;28;20041;-67
2022/04/28 06:39:02;;;;;;;14.18;8.07;;;;;;;;;;5042618;28;20116;-64
2022/04/28 06:41:28;;;;;;;19.83;8.27;;;;;;;;;;5051765;28;20390;-66
2022/04/28 06:43:55;;;;;;;18.88;8.07;;;;;;;;;;5045565;28;20047;-66
2022/04/28 06:46:21;;;;;;;16.33;8.13;;;;;;;;;;5051369;28;20550;-64
2022/04/28 06:48:47;;;;;;;16.23;7.97;;;;;;;;;;5035496;28;20091;-65
2022/04/28 06:51:13;;;;;;;22.80;7.90;;;;;;;;;;5031544;28;20039;-66
2022/04/28 06:53:39;;;;;;;17.95;8.07;;;;;;;;;;5032944;28;20110;-69
2022/04/28 06:56:08;;;;;;;16.10;7.75;;;;;;;;;;5029369;28;20084;-63
2022/04/28 06:58:35;;;;;;;16.48;8.40;;;;;;;;;;5046793;28;20052;-68
2022/04/28 07:01:01;;;;;;;21.58;8.07;;;;;;;;;;5052195;28;20039;-68
2022/04/28 07:03:26;;;;;;;17.23;8.52;;;;;;;;;;5036665;28;20038;-70
2022/04/28 07:05:53;;;;;;;17.92;8.65;;;;;;;;;;5030456;28;20044;-66
2022/04/28 07:08:19;;;;;;;18.52;8.38;;;;;;;;;;5040158;28;20043;-67
2022/04/28 07:10:44;;;;;;;18.92;7.90;;;;;;;;;;5051616;28;20036;-66
2022/04/28 07:13:10;;;;;;;18.50;8.70;;;;;;;;;;5036740;28;20029;-67
2022/04/28 07:15:38;;;;;;;16.70;8.23;;;;;;;;;;5030399;28;20029;-66
2022/04/28 07:18:05;;;;;;;17.77;8.75;;;;;;;;;;5028991;28;20088;-65
2022/04/28 07:20:34;;;;;;;15.38;8.20;;;;;;;;;;5030277;28;20116;-65
2022/04/28 07:23:01;;;;;;;17.58;7.93;;;;;;;;;;5037570;28;20051;-66
2022/04/28 07:25:27;;;;;;;18.20;8.60;;;;;;;;;;5029633;28;20068;-66
2022/04/28 07:27:53;;;;;;;19.67;8.23;;;;;;;;;;5032584;28;20171;-65
2022/04/28 07:30:20;;;;;;;18.17;8.38;;;;;;;;;;5031180;28;20041;-64
2022/04/28 07:32:46;;;;;;;17.42;8.40;;;;;;;;;;5036307;28;20060;-65
2022/04/28 07:35:11;;;;;;;16.65;8.10;;;;;;;;;;5038504;28;20088;-65
2022/04/28 07:37:36;;;;;;;17.85;7.88;;;;;;;;;;5038528;28;20040;-65
2022/04/28 07:40:03;;;;;;;17.58;8.68;;;;;;;;;;5051153;28;20056;-64
2022/04/28 07:42:29;;;;;;;19.42;8.20;;;;;;;;;;5039580;28;20030;-66
2022/04/28 07:44:55;;;;;;;15.68;8.20;;;;;;;;;;5015719;28;20060;-68
2022/04/28 07:47:20;;;;;;;18.30;8.38;;;;;;;;;;5019980;28;20059;-66
2022/04/28 07:49:45;;;;;;;20.15;8.70;;;;;;;;;;5030804;28;20033;-66
2022/04/28 07:52:11;;;;;;;18.55;8.43;;;;;;;;;;4994141;28;20030;-67
2022/04/28 07:54:37;;;;;;;16.83;8.18;;;;;;;;;;5029477;28;20417;-65
2022/04/28 07:57:02;;;;;;;14.20;7.75;;;;;;;;;;5050013;28;20414;-64
2022/04/28 07:59:28;;;;;;;19.63;8.30;;;;;;;;;;5050742;28;20029;-69
2022/04/28 08:01:53;;;;;;;18.83;7.93;;;;;;;;;;5049514;28;20165;-68
2022/04/28 08:04:19;;;;;;;17.52;8.95;;;;;;;;;;5046019;28;20137;-66
2022/04/28 08:06:44;;;;;;;18.23;8.95;;;;;;;;;;5038869;28;20037;-66
2022/04/28 08:09:09;;;;;;;14.80;8.02;;;;;;;;;;5017070;28;20033;-66
2022/04/28 08:11:36;;;;;;;15.27;8.32;;;;;;;;;;5034747;28;20030;-66
2022/04/28 08:14:01;;;;;;;14.55;8.18;;;;;;;;;;5030534;28;20034;-67
2022/04/28 08:16:27;;;;;;;17.35;8.52;;;;;;;;;;5030551;28;20379;-66
2022/04/28 08:18:54;;;;;;;17.50;8.15;;;;;;;;;;5028817;28;20036;-69
2022/04/28 08:21:20;;;;;;;14.77;7.93;;;;;;;;;;5030479;28;20049;-67
2022/04/28 08:23:45;;;;;;;19.95;8.57;;;;;;;;;;5034840;28;20040;-69
2022/04/28 08:26:37;;;;;;;19.92;8.20;;;;;;;;;;5026774;28;20471;-66
2022/04/28 08:29:08;;;;;;;15.27;8.00;;;;;;;;;;5038351;28;20063;-66
2022/04/28 08:31:34;;;;;;;19.13;8.45;;;;;;;;;;5022593;28;20034;-65
2022/04/28 08:34:00;;;;;;;15.13;8.23;;;;;;;;;;5035799;28;20041;-68
2022/04/28 08:36:25;;;;;;;19.23;8.00;;;;;;;;;;5050114;28;20047;-65
2022/04/28 08:38:52;;;;;;;17.58;8.43;;;;;;;;;;5047245;28;20041;-64
2022/04/28 08:41:33;;;;;;;17.48;8.38;;;;;;;;;;5013686;28;20168;-65
2022/04/28 08:44:00;;;;;;;14.00;8.15;;;;;;;;;;5037126;28;20437;-65
2022/04/28 08:49:14;;;;;;;16.83;8.40;;;;;;;;;;5013983;28;20538;-65
2022/04/28 08:51:40;;;;;;;15.30;8.73;;;;;;;;;;5014029;28;20065;-65
2022/04/28 08:54:09;;;;;;;15.48;8.55;;;;;;;;;;5032262;28;20025;-64
2022/04/28 08:56:34;;;;;;;17.88;8.73;;;;;;;;;;5040912;28;20121;-68
2022/04/28 08:59:00;;;;;;;21.20;8.63;;;;;;;;;;5037585;28;20112;-66
2022/04/28 09:01:27;;;;;;;14.25;8.02;;;;;;;;;;5035262;28;20036;-67
2022/04/28 09:03:54;;;;;;;14.32;7.97;;;;;;;;;;5034265;28;20033;-69
2022/04/28 09:06:20;;;;;;;16.02;8.52;;;;;;;;;;5033311;28;20037;-66
2022/04/28 09:08:46;;;;;;;20.00;8.63;;;;;;;;;;5034826;28;20036;-65
2022/04/28 09:11:21;;;;;;;21.27;8.68;;;;;;;;;;5044058;28;20497;-67
2022/04/28 09:14:09;;;;;;;16.10;8.45;;;;;;;;;;5048952;28;20033;-64
2022/04/28 09:17:03;;;;;;;16.85;8.75;;;;;;;;;;5032632;28;20132;-66
2022/04/28 09:19:33;;;;;;;18.52;8.63;;;;;;;;;;5036901;28;20053;-65
2022/04/28 09:22:23;;;;;;;16.55;8.48;;;;;;;;;;5053856;28;20039;-67
2022/04/28 09:24:56;;;;;;;17.65;8.75;;;;;;;;;;5051194;28;20063;-67
2022/04/28 09:27:21;;;;;;;18.60;9.30;;;;;;;;;;5039493;28;20044;-66
2022/04/28 09:29:48;;;;;;;17.10;7.85;;;;;;;;;;5032376;28;20033;-64
2022/04/28 09:32:15;;;;;;;16.13;8.32;;;;;;;;;;5035638;28;20029;-67
2022/04/28 09:34:48;;;;;;;18.90;8.88;;;;;;;;;;5032109;28;20056;-66
2022/04/28 09:37:25;;;;;;;16.90;8.82;;;;;;;;;;5030728;28;20034;-65
2022/04/28 09:42:41;;;;;;;14.02;8.57;;;;;;;;;;5049384;28;20083;-66
2022/04/28 09:45:10;;;;;;;16.63;8.32;;;;;;;;;;5032322;28;20041;-65
2022/04/28 09:47:37;;;;;;;13.63;8.73;;;;;;;;;;5036464;28;20034;-67
2022/04/28 09:50:16;;;;;;;15.70;9.18;;;;;;;;;;5033352;28;20075;-67
2022/04/28 09:52:43;;;;;;;17.50;8.88;;;;;;;;;;5032031;28;20087;-67
2022/04/28 09:55:10;;;;;;;16.08;8.52;;;;;;;;;;5033472;28;20112;-65
2022/04/28 09:57:35;;;;;;;17.23;9.23;;;;;;;;;;5027457;28;20072;-67
2022/04/28 10:00:03;;;;;;;15.70;8.32;;;;;;;;;;5015750;28;20151;-68
2022/04/28 10:02:28;;;;;;;16.15;8.57;;;;;;;;;;5033651;28;20471;-66
2022/04/28 10:04:55;;;;;;;18.65;8.90;;;;;;;;;;5030782;28;20044;-65
2022/04/28 10:07:22;;;;;;;17.88;8.88;;;;;;;;;;5031287;28;20498;-67
2022/04/28 10:09:50;;;;;;;15.48;9.43;;;;;;;;;;5013663;28;20467;-67
2022/04/28 10:12:20;;;;;;;17.25;9.40;;;;;;;;;;5047415;28;20160;-66
2022/04/28 10:14:47;;;;;;;18.27;9.05;;;;;;;;;;5031654;28;20116;-67
2022/04/28 10:17:19;;;;;;;16.38;8.82;;;;;;;;;;5042236;28;20124;-65
2022/04/28 10:19:56;;;;;;;18.73;9.90;;;;;;;;;;5031812;28;20033;-66
2022/04/28 10:22:29;;;;;;;15.85;9.27;;;;;;;;;;5012363;28;20128;-67
2022/04/28 10:33:23;;;;;;;15.55;9.75;;;;;;;;;;5029510;28;20036;-68
2022/04/28 10:35:48;;;;;;;14.20;8.98;;;;;;;;;;5029524;28;20030;-67
2022/04/28 10:38:15;;;;;;;16.00;9.10;;;;;;;;;;5019070;28;20024;-66
2022/04/28 10:40:46;;;;;;;14.85;9.18;;;;;;;;;;5031148;28;20037;-69
2022/04/28 10:43:33;;;;;;;15.57;10.00;;;;;;;;;;5028139;28;20116;-68
2022/04/28 10:46:00;;;;;;;16.83;9.38;;;;;;;;;;5032817;28;20119;-69
2022/04/28 10:48:32;;;;;;;15.13;9.02;;;;;;;;;;5034251;28;20040;-68
2022/04/28 10:51:13;;;;;;;17.45;9.18;;;;;;;;;;5040045;28;20037;-70
2022/04/28 10:54:00;;;;;;;15.18;9.38;;;;;;;;;;5034499;28;20481;-65
2022/04/28 10:56:46;;;;;;;16.75;9.20;;;;;;;;;;5034295;28;20033;-65
2022/04/28 10:59:32;;;;;;;18.70;8.82;;;;;;;;;;5016788;28;20045;-68
2022/04/28 11:02:18;;;;;;;15.13;8.77;;;;;;;;;;5032680;28;20037;-67
2022/04/28 11:05:05;;;;;;;14.77;8.77;;;;;;;;;;5020918;28;20117;-68
2022/04/28 11:07:32;;;;;;;19.95;9.73;;;;;;;;;;5035177;28;20205;-68
2022/04/28 11:09:58;;;;;;;14.88;8.82;;;;;;;;;;5051307;28;20033;-68
2022/04/28 11:12:25;;;;;;;14.73;8.85;;;;;;;;;;5032673;28;20100;-69
2022/04/28 11:15:09;;;;;;;19.42;9.15;;;;;;;;;;5030459;28;20121;-69
2022/04/28 11:17:36;;;;;;;13.90;9.10;;;;;;;;;;5031850;28;20036;-68
2022/04/28 11:20:09;;;;;;;15.63;8.48;;;;;;;;;;5031932;28;20033;-69
2022/04/28 11:22:35;;;;;;;14.15;8.90;;;;;;;;;;5030160;28;20033;-69
2022/04/28 11:25:09;;;;;;;16.70;8.88;;;;;;;;;;5030764;28;20151;-68
2022/04/28 11:27:35;;;;;;;14.77;8.27;;;;;;;;;;5019634;28;20033;-66
2022/04/28 11:30:01;;;;;;;12.77;8.00;;;;;;;;;;5031626;28;20040;-68
2022/04/28 11:32:26;;;;;;;13.43;8.75;;;;;;;;;;5032563;28;20029;-67
2022/04/28 11:34:52;;;;;;;15.02;8.30;;;;;;;;;;5030830;28;20102;-67
2022/04/28 11:37:19;;;;;;;12.32;8.50;;;;;;;;;;5028191;28;20037;-66
2022/04/28 11:39:46;;;;;;;12.50;8.50;;;;;;;;;;5038624;28;20481;-70
2022/04/28 11:42:13;;;;;;;12.00;8.43;;;;;;;;;;5039430;28;20091;-67
2022/04/28 11:44:56;;;;;;;12.25;7.95;;;;;;;;;;5042273;28;20478;-69
2022/04/28 11:47:26;;;;;;;15.15;8.70;;;;;;;;;;5050455;28;20559;-69
2022/04/28 11:50:04;;;;;;;13.48;8.75;;;;;;;;;;5046834;28;20364;-68
2022/04/28 11:52:32;;;;;;;12.85;8.55;;;;;;;;;;5033354;28;20116;-70
2022/04/28 11:55:06;;;;;;;12.52;8.48;;;;;;;;;;5011332;28;20449;-71
2022/04/28 11:57:32;;;;;;;15.18;8.70;;;;;;;;;;5030820;28;20186;-68
2022/04/28 11:59:59;;;;;;;12.30;8.77;;;;;;;;;;5051659;28;20041;-69
2022/04/28 12:02:28;;;;;;;13.57;8.85;;;;;;;;;;5048931;28;20074;-68
2022/04/28 12:04:55;;;;;;;13.55;9.20;;;;;;;;;;5051222;28;20490;-69
2022/04/28 12:07:22;;;;;;;12.20;8.25;;;;;;;;;;5039583;28;20026;-68
2022/04/28 12:15:22;;;;;;;12.25;8.25;;;;;;;;;;5030512;28;20040;-67
2022/04/28 12:21:23;;;;;;;14.52;8.13;;;;;;;;;;5026872;28;20411;-68
2022/04/28 12:23:58;;;;;;;10.90;8.00;;;;;;;;;;5033350;28;20033;-68
2022/04/28 12:26:24;;;;;;;13.15;8.45;;;;;;;;;;5031693;28;20030;-67
2022/04/28 12:28:50;;;;;;;12.80;8.13;;;;;;;;;;5035150;28;20387;-66
2022/04/28 12:31:28;;;;;;;12.73;7.88;;;;;;;;;;5032799;28;20041;-67
2022/04/28 12:33:55;;;;;;;12.82;8.05;;;;;;;;;;5033905;28;20026;-67
2022/04/28 12:36:21;;;;;;;13.27;7.63;;;;;;;;;;5028860;28;20559;-68
2022/04/28 12:38:56;;;;;;;15.40;8.40;;;;;;;;;;5030583;28;21939;-67
2022/04/28 12:41:30;;;;;;;10.10;7.90;;;;;;;;;;5053844;28;20032;-68
2022/04/28 12:43:57;;;;;;;13.15;7.82;;;;;;;;;;5052897;28;20032;-66
2022/04/28 12:46:32;;;;;;;12.82;8.13;;;;;;;;;;5053338;28;20041;-65
2022/04/28 12:48:59;;;;;;;12.88;8.18;;;;;;;;;;5028704;28;20090;-66
2022/04/28 12:51:28;;;;;;;12.52;7.95;;;;;;;;;;5032532;28;20026;-65
2022/04/28 12:53:55;;;;;;;12.55;8.13;;;;;;;;;;5019073;28;20040;-66
2022/04/28 12:56:29;;;;;;;14.27;8.10;;;;;;;;;;5043629;28;20064;-66
2022/04/28 12:58:57;;;;;;;12.30;8.68;;;;;;;;;;5047299;28;20082;-66
2022/04/28 13:01:24;;;;;;;15.30;8.35;;;;;;;;;;5053698;28;20039;-66
2022/04/28 13:04:05;;;;;;;11.80;7.80;;;;;;;;;;5038649;28;20037;-67
2022/04/28 13:06:32;;;;;;;12.93;7.85;;;;;;;;;;5033378;28;20105;-66
2022/04/28 13:09:00;;;;;;;16.23;7.78;;;;;;;;;;5033733;28;20386;-68
2022/04/28 13:11:28;;;;;;;15.05;8.20;;;;;;;;;;5032355;28;20035;-65
2022/04/28 13:13:55;;;;;;;13.38;7.90;;;;;;;;;;5032783;28;20036;-68
2022/04/28 13:16:21;;;;;;;9.90;6.80;;;;;;;;;;5032324;28;20060;-66
2022/04/28 13:18:47;;;;;;;13.43;7.38;;;;;;;;;;5031342;28;20091;-66
2022/04/28 13:21:15;;;;;;;17.13;7.35;;;;;;;;;;5031929;28;20057;-66
2022/04/28 13:23:41;;;;;;;13.65;7.40;;;;;;;;;;5033545;28;20495;-60
2022/04/28 13:26:08;;;;;;;9.13;6.68;;;;;;;;;;5030240;28;20087;-63
2022/04/28 13:28:34;;;;;;;9.80;6.50;;;;;;;;;;5032318;28;20521;-61
2022/04/28 13:30:59;;;;;;;12.13;6.88;;;;;;;;;;5037217;28;20034;-61
2022/04/28 13:33:24;;;;;;;11.27;7.13;;;;;;;;;;5014096;28;20092;-61
2022/04/28 13:35:50;;;;;;;13.68;7.60;;;;;;;;;;5026705;28;20109;-61
2022/04/28 13:38:16;;;;;;;11.70;7.55;;;;;;;;;;5034155;28;20033;-61
2022/04/28 13:40:42;;;;;;;10.77;7.03;;;;;;;;;;5033208;28;20080;-61
2022/04/28 13:43:08;;;;;;;16.92;7.72;;;;;;;;;;5035938;28;20131;-61
2022/04/28 13:45:33;;;;;;;12.65;6.88;;;;;;;;;;5033788;28;20156;-61
2022/04/28 13:47:59;;;;;;;11.95;6.90;;;;;;;;;;5040053;28;20041;-61
2022/04/28 13:50:25;;;;;;;14.50;6.75;;;;;;;;;;5048521;28;20028;-63
2022/04/28 13:52:50;;;;;;;12.60;5.85;;;;;;;;;;5036487;28;20032;-62
2022/04/28 13:55:17;;;;;;;12.93;7.65;;;;;;;;;;5032405;28;20025;-64
2022/04/28 13:57:43;;;;;;;15.30;6.80;;;;;;;;;;5049536;28;20029;-64
2022/04/28 14:00:09;;;;;;;11.65;7.30;;;;;;;;;;5049603;28;20036;-61
2022/04/28 14:02:34;;;;;;;13.43;6.68;;;;;;;;;;5052463;28;20040;-61
2022/04/28 14:05:00;;;;;;;9.45;5.88;;;;;;;;;;5039654;28;20048;-61
2022/04/28 14:07:25;;;;;;;13.10;6.63;;;;;;;;;;5018870;28;20102;-61
2022/04/28 14:09:52;;;;;;;11.48;6.47;;;;;;;;;;5051309;28;20109;-63
2022/04/28 14:12:18;;;;;;;11.40;6.53;;;;;;;;;;5049292;28;20486;-62
2022/04/28 14:14:44;;;;;;;13.30;6.65;;;;;;;;;;5051513;28;20079;-63
2022/04/28 14:17:09;;;;;;;10.32;6.80;;;;;;;;;;5050381;28;20025;-61
2022/04/28 14:19:35;;;;;;;13.63;7.65;;;;;;;;;;5032281;28;20044;-60
2022/04/28 14:22:07;;;;;;;11.60;6.95;;;;;;;;;;5039159;28;20064;-60
2022/04/28 14:24:32;;;;;;;10.13;7.15;;;;;;;;;;5029308;28;20045;-63
2022/04/28 14:26:58;;;;;;;10.85;6.75;;;;;;;;;;5043855;28;20041;-63
2022/04/28 14:29:25;;;;;;;10.63;6.70;;;;;;;;;;5031998;28;20040;-64
2022/04/28 14:31:50;;;;;;;10.20;6.47;;;;;;;;;;5028499;28;20038;-63
2022/04/28 14:34:19;;;;;;;10.13;6.07;;;;;;;;;;5011531;28;20084;-63
2022/04/28 14:36:47;;;;;;;13.95;6.47;;;;;;;;;;5021808;28;20033;-63
2022/04/28 14:39:12;;;;;;;9.18;6.05;;;;;;;;;;5031514;28;20478;-64
2022/04/28 14:41:38;;;;;;;11.68;6.80;;;;;;;;;;5038470;28;20039;-63
2022/04/28 14:44:04;;;;;;;11.93;6.55;;;;;;;;;;5044217;28;20029;-64
2022/04/28 14:46:30;;;;;;;9.13;6.60;;;;;;;;;;5032467;28;20040;-64
2022/04/28 14:54:23;;;;;;;13.68;6.70;;;;;;;;;;5046818;28;20075;-61
2022/04/28 14:56:48;;;;;;;11.80;6.30;;;;;;;;;;5038817;28;20454;-61
2022/04/28 14:59:15;;;;;;;10.40;6.97;;;;;;;;;;5042814;28;20029;-61
2022/04/28 15:01:40;;;;;;;11.85;6.20;;;;;;;;;;5027924;28;20132;-61
2022/04/28 15:04:06;;;;;;;12.30;6.50;;;;;;;;;;5032198;28;20032;-61
2022/04/28 15:06:31;;;;;;;10.48;6.50;;;;;;;;;;5035267;28;20036;-62
2022/04/28 15:08:57;;;;;;;11.88;7.03;;;;;;;;;;5046618;28;20025;-61
2022/04/28 15:11:23;;;;;;;13.38;6.95;;;;;;;;;;5049963;28;20036;-61
2022/04/28 15:13:49;;;;;;;11.85;6.40;;;;;;;;;;5033926;28;20033;-62
2022/04/28 15:16:14;;;;;;;13.57;6.35;;;;;;;;;;5051054;28;20055;-62
2022/04/28 15:18:40;;;;;;;10.75;6.80;;;;;;;;;;5046091;28;20043;-60
2022/04/28 15:21:05;;;;;;;12.55;6.30;;;;;;;;;;5041213;28;20372;-60